Terminal Aerodrome Forecast
Issued by NWS

Home | Current Version | Previous Version | Text Only | Print | Product List | Glossary On
Versions: 1 2 3 4 5 6 7 8 9 10 11 12 13 14 15 16 17 18 19
640
FTUS42 KTBW 062332
TAFLAL
TAF
KLAL 062332Z 0700/0724 30008KT P6SM SKC
     FM070400 31004KT P6SM FEW050
     FM070900 35004KT P6SM SKC
     FM071400 36009KT P6SM SKC
     FM071800 33010KT P6SM FEW050
      AMD NOT SKED 0702/0711=

USA.gov is the U.S. government's official web portal to all federal, state and local government web resources and services.